createdAt,value
2018-11-28T00:03:05.686Z,101623.00
2018-11-28T00:07:58.996Z,101621.00
2018-11-28T00:12:52.494Z,101622.00
2018-11-28T00:17:45.768Z,101618.00
2018-11-28T00:22:39.103Z,101610.00
2018-11-28T00:27:32.422Z,101600.00
2018-11-28T00:32:26.768Z,101597.00
2018-11-28T00:37:20.048Z,101594.00
2018-11-28T00:42:13.367Z,101588.00
2018-11-28T00:47:06.673Z,101592.00
2018-11-28T00:51:59.949Z,101586.00
2018-11-28T00:56:53.236Z,101579.00
2018-11-28T01:01:46.464Z,101576.00
2018-11-28T01:06:39.780Z,101570.00
2018-11-28T01:11:33.047Z,101575.00
2018-11-28T01:16:26.395Z,101575.00
2018-11-28T01:21:19.643Z,101572.00
2018-11-28T01:26:12.940Z,101578.00
2018-11-28T01:31:06.673Z,101587.00
2018-11-28T01:35:59.956Z,101588.00
2018-11-28T01:40:53.595Z,101585.00
2018-11-28T01:45:46.857Z,101581.00
2018-11-28T01:50:40.154Z,101583.00
2018-11-28T01:55:33.439Z,101586.00
2018-11-28T02:00:27.143Z,101580.00
2018-11-28T02:05:20.458Z,101581.00
2018-11-28T02:10:15.505Z,101583.00
2018-11-28T02:15:11.137Z,101571.00
2018-11-28T02:20:07.771Z,101563.00
2018-11-28T02:25:01.694Z,101561.00
2018-11-28T02:29:54.971Z,101567.00
2018-11-28T02:34:48.277Z,101558.00
2018-11-28T02:39:41.562Z,101554.00
2018-11-28T02:44:34.838Z,101558.00
2018-11-28T02:49:28.127Z,101559.00
2018-11-28T02:54:22.083Z,101553.00
2018-11-28T02:59:15.309Z,101554.00
2018-11-28T03:04:08.606Z,101547.00
2018-11-28T03:09:01.903Z,101536.00
2018-11-28T03:13:55.168Z,101536.00
2018-11-28T03:18:48.458Z,101545.00
2018-11-28T03:23:41.767Z,101547.00
2018-11-28T03:28:35.065Z,101546.00
2018-11-28T03:33:28.418Z,101549.00
2018-11-28T03:38:21.723Z,101543.00
2018-11-28T03:43:15.019Z,101545.00
2018-11-28T03:48:08.281Z,101538.00
2018-11-28T03:53:01.564Z,101525.00
2018-11-28T03:57:54.827Z,101523.00
2018-11-28T04:02:49.765Z,101520.00
2018-11-28T04:07:43.057Z,101528.00
2018-11-28T04:12:37.568Z,101520.00
2018-11-28T04:17:30.863Z,101520.00
2018-11-28T04:22:24.125Z,101523.00
2018-11-28T04:27:17.401Z,101522.00
2018-11-28T04:32:10.693Z,101525.00
2018-11-28T04:37:03.962Z,101533.00
2018-11-28T04:43:00.319Z,101531.00
2018-11-28T04:47:55.079Z,101524.00
2018-11-28T04:52:48.416Z,101530.00
2018-11-28T04:57:41.778Z,101524.00
2018-11-28T05:02:35.120Z,101521.00
2018-11-28T05:07:29.603Z,101520.00
2018-11-28T05:12:22.970Z,101523.00
2018-11-28T05:17:16.337Z,101521.00
2018-11-28T05:22:09.613Z,101512.00
2018-11-28T05:27:03.011Z,101515.00
2018-11-28T05:31:56.307Z,101503.00
2018-11-28T05:36:49.559Z,101513.00
2018-11-28T05:41:43.918Z,101516.00
2018-11-28T05:46:37.216Z,101507.00
2018-11-28T05:51:31.595Z,101527.00
2018-11-28T05:56:24.838Z,101521.00
2018-11-28T06:01:18.709Z,101528.00
2018-11-28T06:06:12.024Z,101517.00
2018-11-28T06:11:05.936Z,101514.00
2018-11-28T06:15:59.187Z,101517.00
2018-11-28T06:20:52.551Z,101532.00
2018-11-28T06:25:45.850Z,101529.00
2018-11-28T06:30:39.081Z,101514.00
2018-11-28T06:35:32.372Z,101516.00
2018-11-28T06:40:25.631Z,101511.00
2018-11-28T06:45:20.877Z,101515.00
2018-11-28T06:50:15.703Z,101527.00
2018-11-28T06:55:12.072Z,101515.00
2018-11-28T07:00:11.264Z,101532.00
2018-11-28T07:05:05.463Z,101543.00
2018-11-28T07:09:58.859Z,101545.00
2018-11-28T07:14:52.103Z,101566.00
2018-11-28T07:19:45.373Z,101555.00
2018-11-28T07:24:38.636Z,101567.00
2018-11-28T07:29:31.883Z,101567.00
2018-11-28T07:34:25.184Z,101581.00
2018-11-28T07:39:18.441Z,101584.00
2018-11-28T07:44:11.693Z,101580.00
2018-11-28T07:49:05.005Z,101577.00
2018-11-28T07:53:58.343Z,101581.00
2018-11-28T07:58:51.638Z,101594.00
2018-11-28T08:03:44.963Z,101588.00
2018-11-28T08:08:38.254Z,101586.00
2018-11-28T08:13:31.562Z,101590.00
2018-11-28T08:18:24.902Z,101591.00
2018-11-28T08:23:18.178Z,101585.00
2018-11-28T08:28:11.455Z,101594.00
2018-11-28T08:33:04.907Z,101597.00
2018-11-28T08:37:58.156Z,101589.00
2018-11-28T08:42:51.784Z,101585.00
2018-11-28T08:47:46.720Z,101586.00
2018-11-28T08:52:40.025Z,101587.00
2018-11-28T08:57:33.324Z,101582.00
2018-11-28T09:02:26.605Z,101585.00
2018-11-28T09:07:19.909Z,101585.00
2018-11-28T09:12:13.170Z,101582.00
2018-11-28T09:17:06.777Z,101585.00
2018-11-28T09:22:00.097Z,101582.00
2018-11-28T09:26:53.398Z,101584.00
2018-11-28T09:31:46.710Z,101596.00
2018-11-28T09:36:39.942Z,101585.00
2018-11-28T09:41:33.219Z,101588.00
2018-11-28T09:46:26.493Z,101577.00
2018-11-28T09:51:19.807Z,101592.00
2018-11-28T09:56:13.161Z,101592.00
2018-11-28T10:01:06.516Z,101584.00
2018-11-28T10:05:59.787Z,101582.00
2018-11-28T10:10:53.055Z,101581.00
2018-11-28T10:15:46.432Z,101578.00
2018-11-28T10:20:39.677Z,101570.00
2018-11-28T10:25:33.004Z,101563.00
2018-11-28T10:30:29.235Z,101553.00
2018-11-28T10:35:22.434Z,101562.00
2018-11-28T10:40:17.814Z,101564.00
2018-11-28T10:45:13.725Z,101516.00
2018-11-28T10:50:11.178Z,101544.00
2018-11-28T10:55:05.773Z,101550.00
2018-11-28T10:59:59.136Z,101535.00
2018-11-28T11:04:58.275Z,101533.00
2018-11-28T11:09:57.241Z,101527.00
2018-11-28T11:14:50.564Z,101531.00
2018-11-28T11:19:43.903Z,101527.00
2018-11-28T11:24:37.255Z,101528.00
2018-11-28T11:29:30.552Z,101522.00
2018-11-28T11:34:23.835Z,101526.00
2018-11-28T11:39:17.142Z,101511.00
2018-11-28T11:44:10.498Z,101504.00
2018-11-28T11:49:04.200Z,101491.00
2018-11-28T11:53:57.555Z,101497.00
2018-11-28T11:58:50.895Z,101496.00
2018-11-28T12:03:44.244Z,101492.00
2018-11-28T12:08:37.559Z,101495.00
2018-11-28T12:13:30.895Z,101484.00
2018-11-28T12:18:24.235Z,101493.00
2018-11-28T12:23:17.610Z,101474.00
2018-11-28T12:28:11.012Z,101476.00
2018-11-28T12:33:04.581Z,101469.00
2018-11-28T12:37:59.903Z,101472.00
2018-11-28T12:42:53.400Z,101468.00
2018-11-28T12:47:47.615Z,101465.00
2018-11-28T12:52:40.962Z,101465.00
2018-11-28T12:57:34.257Z,101457.00
2018-11-28T13:02:27.511Z,101461.00
2018-11-28T13:07:20.741Z,101455.00
2018-11-28T13:12:14.129Z,101441.00
2018-11-28T13:17:07.482Z,101446.00
2018-11-28T13:22:00.781Z,101442.00
2018-11-28T13:26:54.058Z,101439.00
2018-11-28T13:31:47.393Z,101425.00
2018-11-28T13:36:40.674Z,101426.00
2018-11-28T13:41:33.948Z,101420.00
2018-11-28T13:46:27.295Z,101420.00
2018-11-28T13:51:20.557Z,101416.00
2018-11-28T13:56:58.153Z,101414.00
2018-11-28T14:01:08.375Z,101412.00
2018-11-28T14:06:01.641Z,101398.00
2018-11-28T14:10:55.453Z,101397.00
2018-11-28T14:15:48.718Z,101392.00
2018-11-28T14:20:42.107Z,101404.00
2018-11-28T14:25:35.619Z,101414.00
2018-11-28T14:30:28.912Z,101407.00
2018-11-28T14:35:22.982Z,101416.00
2018-11-28T14:40:19.603Z,101409.00
2018-11-28T14:45:15.769Z,101413.00
2018-11-28T14:50:15.547Z,101417.00
2018-11-28T14:55:13.117Z,101406.00
2018-11-28T15:00:19.748Z,101399.00
2018-11-28T15:05:36.294Z,101408.00
2018-11-28T15:11:07.019Z,101410.00
2018-11-28T15:16:00.826Z,101411.00
2018-11-28T15:20:54.134Z,101402.00
2018-11-28T15:25:47.491Z,101406.00
2018-11-28T15:30:40.838Z,101414.00
2018-11-28T15:35:34.173Z,101404.00
2018-11-28T15:40:27.475Z,101399.00
2018-11-28T15:45:20.789Z,101403.00
2018-11-28T15:50:14.167Z,101404.00
2018-11-28T15:55:10.284Z,101415.00
2018-11-28T16:00:04.608Z,101423.00
2018-11-28T16:04:57.962Z,101432.00
2018-11-28T16:09:56.834Z,101421.00
2018-11-28T16:14:50.094Z,101412.00
2018-11-28T16:19:43.393Z,101413.00
2018-11-28T16:24:36.794Z,101409.00
2018-11-28T16:29:30.109Z,101413.00
2018-11-28T16:34:23.355Z,101419.00
2018-11-28T16:39:16.660Z,101416.00
2018-11-28T16:44:10.056Z,101412.00
2018-11-28T16:49:03.460Z,101411.00
2018-11-28T16:53:57.194Z,101403.00
2018-11-28T16:58:50.496Z,101418.00
2018-11-28T17:03:43.999Z,101421.00
2018-11-28T17:08:37.290Z,101438.00
2018-11-28T17:13:30.567Z,101441.00
2018-11-28T17:18:23.794Z,101445.00
2018-11-28T17:23:17.089Z,101437.00
2018-11-28T17:28:10.987Z,101439.00
2018-11-28T17:33:05.110Z,101442.00
2018-11-28T17:37:58.363Z,101444.00
2018-11-28T17:42:53.642Z,101455.00
2018-11-28T17:47:46.982Z,101448.00
2018-11-28T17:52:40.724Z,101443.00
2018-11-28T17:57:34.005Z,101445.00
2018-11-28T18:02:27.302Z,101438.00
2018-11-28T18:07:20.550Z,101444.00
2018-11-28T18:12:13.793Z,101433.00
2018-11-28T18:17:07.250Z,101432.00
2018-11-28T18:22:00.543Z,101420.00
2018-11-28T18:26:53.842Z,101394.00
2018-11-28T18:31:47.488Z,101378.00
2018-11-28T18:36:40.744Z,101391.00
2018-11-28T18:41:34.036Z,101399.00
2018-11-28T18:46:27.325Z,101403.00
2018-11-28T18:51:20.624Z,101403.00
2018-11-28T18:56:13.907Z,101402.00
2018-11-28T19:01:07.207Z,101399.00
2018-11-28T19:06:00.527Z,101409.00
2018-11-28T19:10:53.869Z,101412.00
2018-11-28T19:15:48.227Z,101410.00
2018-11-28T19:20:41.511Z,101385.00
2018-11-28T19:25:34.796Z,101387.00
2018-11-28T19:30:35.436Z,101393.00
2018-11-28T19:35:28.945Z,101399.00
2018-11-28T19:40:35.636Z,101389.00
2018-11-28T19:45:29.013Z,101371.00
2018-11-28T19:50:26.018Z,101366.00
2018-11-28T19:55:19.382Z,101363.00
2018-11-28T20:00:17.688Z,101365.00
2018-11-28T20:05:11.120Z,101361.00
2018-11-28T20:10:08.019Z,101384.00
2018-11-28T20:15:01.257Z,101391.00
2018-11-28T20:19:55.274Z,101388.00
2018-11-28T20:24:48.541Z,101374.00
2018-11-28T20:29:41.891Z,101369.00
2018-11-28T20:34:35.176Z,101375.00
2018-11-28T20:39:28.500Z,101371.00
2018-11-28T20:44:21.785Z,101369.00
2018-11-28T20:49:15.037Z,101356.00
2018-11-28T20:54:08.341Z,101361.00
2018-11-28T20:59:01.687Z,101357.00
2018-11-28T21:03:54.990Z,101358.00
2018-11-28T21:08:48.309Z,101371.00
2018-11-28T21:13:41.593Z,101387.00
2018-11-28T21:18:34.869Z,101383.00
2018-11-28T21:23:28.177Z,101362.00
2018-11-28T21:28:21.787Z,101358.00
2018-11-28T21:33:15.325Z,101352.00
2018-11-28T21:38:09.071Z,101352.00
2018-11-28T21:43:02.403Z,101354.00
2018-11-28T21:47:57.179Z,101351.00
2018-11-28T21:52:50.521Z,101358.00
2018-11-28T21:57:43.868Z,101344.00
2018-11-28T22:02:37.148Z,101341.00
2018-11-28T22:07:30.399Z,101352.00
2018-11-28T22:12:23.708Z,101353.00
2018-11-28T22:17:17.040Z,101354.00
2018-11-28T22:22:10.318Z,101365.00
2018-11-28T22:27:03.634Z,101356.00
2018-11-28T22:31:56.985Z,101358.00
2018-11-28T22:36:50.286Z,101359.00
2018-11-28T22:41:43.572Z,101352.00
2018-11-28T22:46:37.145Z,101358.00
2018-11-28T22:51:30.467Z,101366.00
2018-11-28T22:56:23.762Z,101364.00
2018-11-28T23:01:21.695Z,101349.00
2018-11-28T23:06:14.961Z,101340.00
2018-11-28T23:11:08.184Z,101342.00
2018-11-28T23:16:01.616Z,101324.00
2018-11-28T23:20:54.953Z,101322.00
2018-11-28T23:25:48.306Z,101329.00
2018-11-28T23:30:41.600Z,101329.00
2018-11-28T23:35:34.966Z,101334.00
2018-11-28T23:40:28.212Z,101313.00
2018-11-28T23:45:21.818Z,101315.00
2018-11-28T23:50:17.277Z,101303.00
2018-11-28T23:55:18.158Z,101295.00
